Time;durP1;ratioP1;P1;durP2;ratioP2;P2;SDS_P1;SDS_P2;PMS_P1;PMS_P2;Temp;Humidity;BMP_temperature;BMP_pressure;BME280_temperature;BME280_humidity;BME280_pressure;Samples;Min_cycle;Max_cycle;Signal;HPM_P1;HPM_P2
2022/01/11 00:00:52;;;;;;;33.50;12.05;;;3.20;94.90;;;;;;5085415;27;39111;-61
2022/01/11 00:03:20;;;;;;;57.55;13.60;;;2.40;94.60;;;;;;5085268;27;36134;-61
2022/01/11 00:05:54;;;;;;;29.77;10.90;;;2.40;94.60;;;;;;5084760;28;38035;-61
2022/01/11 00:08:29;;;;;;;37.70;10.70;;;2.30;94.60;;;;;;5085092;28;37571;-61
2022/01/11 00:11:03;;;;;;;58.80;13.07;;;2.30;94.70;;;;;;5084412;28;37723;-61
2022/01/11 00:13:32;;;;;;;28.52;12.43;;;2.30;94.70;;;;;;5083821;27;37544;-62
2022/01/11 00:16:00;;;;;;;43.53;12.02;;;2.20;94.60;;;;;;5083967;27;37072;-61
2022/01/11 00:18:27;;;;;;;50.40;11.95;;;2.20;94.80;;;;;;5083947;27;36498;-62
2022/01/11 00:20:55;;;;;;;34.78;10.75;;;2.20;94.90;;;;;;5084118;28;36451;-62
2022/01/11 00:26:08;;;;;;;37.58;12.02;;;2.20;94.50;;;;;;5083721;28;37725;-61
2022/01/11 00:28:37;;;;;;;24.95;11.55;;;2.30;94.40;;;;;;5084341;28;38881;-62
2022/01/11 00:31:07;;;;;;;24.98;11.35;;;2.30;94.40;;;;;;5083870;28;38462;-61
2022/01/11 00:33:38;;;;;;;18.40;11.43;;;2.30;94.20;;;;;;5082629;27;37830;-61
2022/01/11 00:36:07;;;;;;;22.27;12.48;;;2.30;94.20;;;;;;5084866;27;36786;-61
2022/01/11 00:38:36;;;;;;;18.88;11.40;;;2.30;94.20;;;;;;5083641;27;37710;-61
2022/01/11 00:41:05;;;;;;;18.98;11.45;;;2.30;94.10;;;;;;5083417;28;37684;-61
2022/01/11 00:43:34;;;;;;;15.85;11.10;;;2.20;94.00;;;;;;5084181;27;39594;-61
2022/01/11 00:46:04;;;;;;;33.03;11.73;;;2.20;94.00;;;;;;5084704;27;37247;-61
2022/01/11 00:48:31;;;;;;;20.77;11.38;;;2.20;94.00;;;;;;5084543;27;37609;-61
2022/01/11 00:51:00;;;;;;;26.50;12.00;;;2.20;93.90;;;;;;5084766;28;39403;-61
2022/01/11 00:53:28;;;;;;;26.10;11.10;;;2.30;93.80;;;;;;5084556;27;37405;-61
2022/01/11 00:55:55;;;;;;;20.23;11.10;;;2.30;93.80;;;;;;5084606;27;37905;-61
2022/01/11 00:58:22;;;;;;;27.83;11.98;;;2.30;93.80;;;;;;5083910;28;38351;-61
2022/01/11 01:00:50;;;;;;;18.00;10.10;;;2.30;93.70;;;;;;5082470;27;38745;-61
2022/01/11 01:03:20;;;;;;;17.38;12.20;;;2.20;93.80;;;;;;5084198;27;38144;-61
2022/01/11 01:05:47;;;;;;;16.63;11.38;;;2.20;93.90;;;;;;5084346;27;36641;-61
2022/01/11 01:08:15;;;;;;;14.95;9.90;;;2.20;94.20;;;;;;5083837;28;37630;-61
2022/01/11 01:10:46;;;;;;;17.30;10.95;;;2.20;93.90;;;;;;5083720;27;36473;-61
2022/01/11 01:13:18;;;;;;;19.77;12.32;;;2.20;93.90;;;;;;5083539;28;37479;-61
2022/01/11 01:15:48;;;;;;;19.55;11.95;;;2.10;93.80;;;;;;5083431;27;35426;-61
2022/01/11 01:18:17;;;;;;;16.88;11.43;;;2.00;94.00;;;;;;5082791;27;38497;-61
2022/01/11 01:20:46;;;;;;;17.77;10.73;;;1.90;94.20;;;;;;5083484;27;38723;-61
2022/01/11 01:23:14;;;;;;;17.88;11.88;;;1.90;94.40;;;;;;5083549;28;37645;-61
2022/01/11 01:25:42;;;;;;;21.77;12.77;;;1.80;94.60;;;;;;5082505;27;37671;-61
2022/01/11 01:28:10;;;;;;;19.08;11.80;;;1.80;94.70;;;;;;5083327;27;38415;-61
2022/01/11 01:30:38;;;;;;;18.23;12.05;;;1.70;94.70;;;;;;5082597;27;37734;-61
2022/01/11 01:33:06;;;;;;;21.08;13.50;;;1.60;94.90;;;;;;5083111;27;37950;-61
2022/01/11 01:35:39;;;;;;;19.92;12.65;;;1.60;95.10;;;;;;5083340;27;35787;-61
2022/01/11 01:38:08;;;;;;;21.13;12.13;;;1.60;95.30;;;;;;5083994;27;37361;-61
2022/01/11 01:40:41;;;;;;;16.85;11.15;;;1.50;95.40;;;;;;5083173;28;38906;-61
2022/01/11 01:43:11;;;;;;;16.80;10.43;;;1.60;95.50;;;;;;5083600;27;36229;-61
2022/01/11 01:45:39;;;;;;;18.35;12.02;;;1.80;95.30;;;;;;5082482;27;36761;-61
2022/01/11 01:48:07;;;;;;;18.23;10.63;;;1.90;95.10;;;;;;5083446;27;37618;-61
2022/01/11 01:50:35;;;;;;;16.83;11.57;;;2.00;94.90;;;;;;5082189;27;38563;-61
2022/01/11 01:53:05;;;;;;;19.90;11.10;;;2.10;94.70;;;;;;5083385;27;38758;-61
2022/01/11 01:55:34;;;;;;;17.60;10.00;;;2.10;94.20;;;;;;5082514;27;36907;-61
2022/01/11 01:58:02;;;;;;;16.65;10.38;;;2.10;94.10;;;;;;5082926;28;38977;-61
2022/01/11 02:00:30;;;;;;;16.73;11.15;;;2.20;93.90;;;;;;5081960;28;39119;-61
2022/01/11 02:03:04;;;;;;;16.50;10.55;;;2.10;93.70;;;;;;5083635;27;37854;-61
2022/01/11 02:05:32;;;;;;;16.40;10.15;;;2.10;93.40;;;;;;5083327;27;36587;-61
2022/01/11 02:07:59;;;;;;;16.40;10.90;;;2.10;93.30;;;;;;5083069;28;36950;-61
2022/01/11 02:10:26;;;;;;;16.35;10.25;;;2.10;93.30;;;;;;5082154;28;37810;-61
2022/01/11 02:12:56;;;;;;;16.70;12.00;;;2.10;93.20;;;;;;5080544;27;37604;-61
2022/01/11 02:15:23;;;;;;;17.42;11.77;;;2.10;93.20;;;;;;5081469;28;36622;-61
2022/01/11 02:17:51;;;;;;;17.83;10.38;;;2.10;93.10;;;;;;5081923;27;39367;-61
2022/01/11 02:20:20;;;;;;;21.70;13.00;;;2.10;93.20;;;;;;5080650;27;38336;-61
2022/01/11 02:22:47;;;;;;;21.05;12.73;;;2.10;93.30;;;;;;5080714;27;37966;-60
2022/01/11 02:25:15;;;;;;;21.45;13.23;;;2.20;93.40;;;;;;5083884;27;35439;-60
2022/01/11 02:27:42;;;;;;;20.88;13.18;;;2.20;93.50;;;;;;5082490;27;38025;-61
2022/01/11 02:30:10;;;;;;;24.50;13.60;;;2.10;93.50;;;;;;5081815;28;38959;-60
2022/01/11 02:32:49;;;;;;;20.80;12.60;;;2.20;93.60;;;;;;5079490;28;36439;-61
2022/01/11 02:35:17;;;;;;;20.95;13.13;;;2.20;93.60;;;;;;5082501;27;36641;-61
2022/01/11 02:37:46;;;;;;;23.08;12.85;;;2.30;93.60;;;;;;5082692;27;36325;-60
2022/01/11 02:40:17;;;;;;;25.42;13.82;;;2.30;93.50;;;;;;5083053;28;38685;-60
2022/01/11 02:42:44;;;;;;;23.20;14.20;;;2.30;93.50;;;;;;5080911;28;38645;-61
2022/01/11 02:45:15;;;;;;;23.25;13.05;;;2.30;93.50;;;;;;5082794;28;36890;-60
2022/01/11 02:47:45;;;;;;;24.00;13.15;;;2.30;93.50;;;;;;5081578;28;38427;-61
2022/01/11 02:50:13;;;;;;;22.98;13.57;;;2.30;93.60;;;;;;5081584;28;37291;-60
2022/01/11 02:52:41;;;;;;;24.73;14.32;;;2.30;93.70;;;;;;5080354;28;36276;-61
2022/01/11 02:55:11;;;;;;;29.02;15.68;;;2.30;93.80;;;;;;5082113;27;36823;-60
2022/01/11 02:57:39;;;;;;;27.25;14.85;;;2.30;93.80;;;;;;5080099;28;39599;-61
2022/01/11 03:00:09;;;;;;;25.70;14.13;;;2.30;93.80;;;;;;5081450;28;36638;-61
2022/01/11 03:02:36;;;;;;;25.50;13.05;;;2.40;93.90;;;;;;5081557;27;38052;-61
2022/01/11 03:05:05;;;;;;;25.23;14.88;;;2.40;93.90;;;;;;5080639;28;36701;-61
2022/01/11 03:07:33;;;;;;;31.77;15.88;;;2.40;93.90;;;;;;5081527;27;37300;-61
2022/01/11 03:10:04;;;;;;;30.30;16.70;;;2.40;93.90;;;;;;5081611;27;36761;-60
2022/01/11 03:12:33;;;;;;;30.58;16.70;;;2.40;93.90;;;;;;5081654;28;38183;-61
2022/01/11 03:15:00;;;;;;;32.40;16.48;;;2.40;93.90;;;;;;5082339;28;36903;-61
2022/01/11 03:17:28;;;;;;;34.00;17.98;;;2.40;93.90;;;;;;5081785;28;37389;-61
2022/01/11 03:19:55;;;;;;;35.10;18.00;;;2.40;94.00;;;;;;5081857;27;37769;-61
2022/01/11 03:22:23;;;;;;;32.55;16.95;;;2.40;94.00;;;;;;5082519;27;36151;-61
2022/01/11 03:24:50;;;;;;;33.67;19.02;;;2.50;94.00;;;;;;5084059;28;36818;-60
2022/01/11 03:27:17;;;;;;;34.83;18.27;;;2.50;94.00;;;;;;5083999;28;38360;-61
2022/01/11 03:29:46;;;;;;;40.67;19.17;;;2.50;94.00;;;;;;5084800;28;38987;-61
2022/01/11 03:32:18;;;;;;;37.70;18.50;;;2.50;94.10;;;;;;5084948;28;36362;-61
2022/01/11 03:34:46;;;;;;;39.33;19.92;;;2.40;94.10;;;;;;5085611;28;37177;-61
2022/01/11 03:37:16;;;;;;;41.88;19.67;;;2.40;94.20;;;;;;5085601;27;36432;-61
2022/01/11 03:39:44;;;;;;;39.72;18.40;;;2.40;94.40;;;;;;5085818;28;38977;-60
2022/01/11 03:42:12;;;;;;;46.17;18.08;;;2.40;94.40;;;;;;5083786;27;37190;-61
2022/01/11 03:44:39;;;;;;;45.97;19.05;;;2.50;94.50;;;;;;5085413;27;38309;-61
2022/01/11 03:47:08;;;;;;;43.72;19.90;;;2.50;94.50;;;;;;5085331;28;38876;-61
2022/01/11 03:49:36;;;;;;;46.63;19.67;;;2.50;94.50;;;;;;5085273;28;39154;-61
2022/01/11 03:52:04;;;;;;;46.78;20.25;;;2.40;94.60;;;;;;5085612;28;37361;-61
2022/01/11 03:54:44;;;;;;;49.35;21.70;;;2.50;94.70;;;;;;5085453;27;36952;-61
2022/01/11 03:57:11;;;;;;;40.83;18.98;;;2.50;94.70;;;;;;5082638;27;38404;-61
2022/01/11 03:59:39;;;;;;;46.88;21.75;;;2.40;94.70;;;;;;5084239;28;36525;-61
2022/01/11 04:02:07;;;;;;;41.88;20.35;;;2.40;94.80;;;;;;5082930;28;37586;-61
2022/01/11 04:04:35;;;;;;;46.65;20.33;;;2.40;94.80;;;;;;5084880;27;36939;-61
2022/01/11 04:07:02;;;;;;;39.78;19.58;;;2.40;94.80;;;;;;5084488;28;37612;-61
2022/01/11 04:09:29;;;;;;;41.83;20.15;;;2.50;94.70;;;;;;5084207;27;39090;-61
2022/01/11 04:11:57;;;;;;;42.72;20.30;;;2.50;94.70;;;;;;5085107;28;37608;-61
2022/01/11 04:14:25;;;;;;;41.72;18.73;;;2.50;94.90;;;;;;5085328;28;38759;-61
2022/01/11 04:16:53;;;;;;;42.15;19.88;;;2.50;94.50;;;;;;5085540;27;37867;-61
2022/01/11 04:19:22;;;;;;;39.42;19.75;;;2.50;94.50;;;;;;5084992;27;36639;-61
2022/01/11 04:21:50;;;;;;;44.45;20.10;;;2.50;94.40;;;;;;5084456;27;36342;-61
2022/01/11 04:24:17;;;;;;;39.60;19.80;;;2.50;94.40;;;;;;5084905;28;35582;-61
2022/01/11 04:26:44;;;;;;;42.78;19.30;;;2.50;94.30;;;;;;5084860;27;38334;-61
2022/01/11 04:29:12;;;;;;;37.08;19.30;;;2.50;94.30;;;;;;5084593;28;38472;-61
2022/01/11 04:31:39;;;;;;;33.05;18.05;;;2.40;94.30;;;;;;5084689;28;37673;-60
2022/01/11 04:34:06;;;;;;;39.80;20.15;;;2.50;94.30;;;;;;5084589;27;37843;-61
2022/01/11 04:36:35;;;;;;;41.28;18.85;;;2.50;94.30;;;;;;5082999;27;36319;-61
2022/01/11 04:39:05;;;;;;;38.65;19.05;;;2.50;94.30;;;;;;5083997;28;37628;-61
2022/01/11 04:41:32;;;;;;;40.50;19.35;;;3.00;94.50;;;;;;5083008;27;37953;-61
2022/01/11 04:44:00;;;;;;;38.22;18.45;;;2.40;94.60;;;;;;5082948;28;36700;-61
2022/01/11 04:46:27;;;;;;;44.38;20.02;;;2.40;94.40;;;;;;5084164;27;37718;-61
2022/01/11 04:48:55;;;;;;;38.40;19.10;;;2.40;94.50;;;;;;5083137;28;38310;-61
2022/01/11 04:51:24;;;;;;;36.63;18.52;;;2.40;94.50;;;;;;5082997;27;37343;-60
2022/01/11 04:53:54;;;;;;;35.42;17.52;;;2.40;94.40;;;;;;5084038;28;37557;-60
2022/01/11 04:56:21;;;;;;;34.80;18.10;;;2.50;94.40;;;;;;5083891;27;37506;-61
2022/01/11 04:58:48;;;;;;;36.22;18.40;;;2.50;94.40;;;;;;5083854;27;38469;-60
2022/01/11 05:01:17;;;;;;;45.75;20.60;;;2.50;94.40;;;;;;5082667;28;37288;-60
2022/01/11 05:03:44;;;;;;;41.05;20.00;;;2.40;94.40;;;;;;5082958;27;36900;-60
2022/01/11 05:06:12;;;;;;;33.03;17.13;;;2.40;94.50;;;;;;5083790;28;38260;-61
2022/01/11 05:08:39;;;;;;;37.22;19.58;;;2.40;94.60;;;;;;5083096;27;37412;-60
2022/01/11 05:11:09;;;;;;;44.40;20.80;;;2.40;94.70;;;;;;5082570;28;38087;-60
2022/01/11 05:13:36;;;;;;;40.88;18.40;;;2.30;94.90;;;;;;5081755;27;36528;-61
2022/01/11 05:16:04;;;;;;;41.97;19.90;;;2.20;95.00;;;;;;5082944;27;37424;-61
2022/01/11 05:18:31;;;;;;;37.75;19.23;;;2.10;95.20;;;;;;5081514;28;38010;-61
2022/01/11 05:20:59;;;;;;;36.40;17.25;;;2.20;95.40;;;;;;5083795;27;37524;-61
2022/01/11 05:23:26;;;;;;;39.33;18.77;;;2.20;95.40;;;;;;5083052;28;37905;-61
2022/01/11 05:25:53;;;;;;;37.55;17.25;;;2.20;95.40;;;;;;5082790;28;37516;-60
2022/01/11 05:28:22;;;;;;;35.70;17.15;;;2.20;95.40;;;;;;5083269;27;38279;-61
2022/01/11 05:30:50;;;;;;;41.70;19.33;;;2.20;95.50;;;;;;5082223;27;38212;-60
2022/01/11 05:33:17;;;;;;;40.63;18.40;;;2.20;95.60;;;;;;5083399;28;38130;-60
2022/01/11 05:35:44;;;;;;;32.55;17.75;;;2.10;95.80;;;;;;5080829;27;36732;-61
2022/01/11 05:38:12;;;;;;;37.63;18.25;;;2.00;95.90;;;;;;5081998;27;37906;-60
2022/01/11 05:40:39;;;;;;;33.47;17.20;;;2.00;96.00;;;;;;5082829;28;36524;-60
2022/01/11 05:43:07;;;;;;;35.35;17.10;;;2.00;96.10;;;;;;5083124;28;37547;-60
2022/01/11 05:45:35;;;;;;;37.05;17.95;;;2.10;96.10;;;;;;5083600;27;37341;-60
2022/01/11 05:48:04;;;;;;;32.88;17.27;;;2.10;96.10;;;;;;5080992;27;37905;-60
2022/01/11 05:50:31;;;;;;;33.47;17.63;;;2.10;96.20;;;;;;5082230;27;37556;-60
2022/01/11 05:52:59;;;;;;;27.70;15.43;;;2.20;96.10;;;;;;5080525;28;36525;-60
2022/01/11 05:55:26;;;;;;;35.20;17.60;;;2.30;96.00;;;;;;5080265;28;40452;-60
2022/01/11 05:57:53;;;;;;;36.45;17.20;;;2.40;95.80;;;;;;5082505;27;37887;-61
2022/01/11 06:00:22;;;;;;;31.48;16.77;;;2.40;95.70;;;;;;5081060;27;36035;-61
2022/01/11 06:02:54;;;;;;;38.17;17.98;;;2.50;95.60;;;;;;5080598;28;36072;-61
2022/01/11 06:05:23;;;;;;;30.95;16.83;;;2.50;95.50;;;;;;5081968;28;37858;-61
2022/01/11 06:07:51;;;;;;;34.42;18.65;;;2.50;95.40;;;;;;5081242;27;37554;-62
2022/01/11 06:10:18;;;;;;;26.88;14.98;;;2.60;95.30;;;;;;5080382;27;38941;-61
2022/01/11 06:12:46;;;;;;;27.65;14.60;;;2.60;95.20;;;;;;5083248;27;36471;-61
2022/01/11 06:15:14;;;;;;;28.27;15.13;;;2.60;95.10;;;;;;5081482;27;37637;-60
2022/01/11 06:17:41;;;;;;;29.63;15.63;;;2.60;95.00;;;;;;5082095;27;39124;-60
2022/01/11 06:20:11;;;;;;;29.73;16.33;;;2.70;94.90;;;;;;5081619;27;37435;-60
2022/01/11 06:22:39;;;;;;;27.38;15.38;;;2.60;94.80;;;;;;5080981;27;36980;-60
2022/01/11 06:25:07;;;;;;;31.65;17.02;;;2.60;94.70;;;;;;5082841;27;37445;-60
2022/01/11 06:27:39;;;;;;;29.25;15.73;;;2.60;94.70;;;;;;5082275;28;38177;-60
2022/01/11 06:30:08;;;;;;;27.40;14.48;;;2.60;94.60;;;;;;5082187;27;37338;-60
2022/01/11 06:32:36;;;;;;;30.27;15.27;;;2.60;94.60;;;;;;5080914;28;36842;-60
2022/01/11 06:35:04;;;;;;;34.28;17.42;;;2.60;94.60;;;;;;5082907;27;37674;-60
2022/01/11 06:37:32;;;;;;;28.38;16.15;;;2.60;94.60;;;;;;5080748;28;38278;-60
2022/01/11 06:40:01;;;;;;;30.10;15.32;;;2.50;94.60;;;;;;5081135;28;37333;-60
2022/01/11 06:42:28;;;;;;;31.45;16.85;;;2.40;94.80;;;;;;5082754;28;36410;-60
2022/01/11 06:44:55;;;;;;;29.05;16.05;;;2.30;94.90;;;;;;5081044;28;37657;-60
2022/01/11 06:47:23;;;;;;;28.98;15.63;;;2.30;95.10;;;;;;5082149;28;37686;-60
2022/01/11 06:49:50;;;;;;;31.58;16.38;;;2.30;95.20;;;;;;5081802;27;37713;-60
2022/01/11 06:52:17;;;;;;;28.40;16.00;;;2.30;95.20;;;;;;5080418;28;36830;-60
2022/01/11 06:54:46;;;;;;;31.83;15.57;;;2.20;95.30;;;;;;5082387;27;37475;-60
2022/01/11 06:57:14;;;;;;;31.58;16.42;;;2.20;95.40;;;;;;5081426;28;37755;-60
2022/01/11 06:59:41;;;;;;;33.40;15.88;;;2.20;95.40;;;;;;5082135;27;36197;-60
2022/01/11 07:02:08;;;;;;;29.17;16.02;;;2.20;95.30;;;;;;5080632;27;37787;-60
2022/01/11 07:04:37;;;;;;;35.03;17.98;;;2.30;95.20;;;;;;5081571;27;38573;-60
2022/01/11 07:07:05;;;;;;;27.45;14.32;;;2.20;95.30;;;;;;5080701;27;38646;-60
2022/01/11 07:09:33;;;;;;;35.70;16.25;;;2.10;95.40;;;;;;5081756;28;38400;-60
2022/01/11 07:12:02;;;;;;;28.20;15.30;;;2.10;95.40;;;;;;5081220;28;36585;-60
2022/01/11 07:14:29;;;;;;;31.05;15.57;;;2.10;95.40;;;;;;5080000;28;36483;-61
2022/01/11 07:16:57;;;;;;;32.25;17.25;;;2.10;95.40;;;;;;5081397;27;39670;-60
2022/01/11 07:19:24;;;;;;;33.15;16.02;;;2.10;95.30;;;;;;5081103;27;37649;-60
2022/01/11 07:21:52;;;;;;;32.45;16.02;;;2.00;95.40;;;;;;5079985;28;37358;-60
2022/01/11 07:24:19;;;;;;;29.17;16.05;;;2.00;95.40;;;;;;5080191;28;37932;-60
2022/01/11 07:26:46;;;;;;;29.70;15.13;;;2.00;95.50;;;;;;5081195;28;37639;-60
2022/01/11 07:29:15;;;;;;;30.23;15.43;;;2.00;95.50;;;;;;5081471;27;39271;-60
2022/01/11 07:31:43;;;;;;;31.85;15.80;;;2.00;95.50;;;;;;5081074;27;34955;-60
2022/01/11 07:34:10;;;;;;;34.60;17.20;;;2.00;95.60;;;;;;5079091;28;37773;-60
2022/01/11 07:36:42;;;;;;;26.98;15.55;;;2.00;95.60;;;;;;5079255;27;37739;-60
2022/01/11 07:39:12;;;;;;;31.05;16.05;;;2.00;95.70;;;;;;5078263;27;37560;-60
2022/01/11 07:41:39;;;;;;;25.02;14.07;;;2.00;95.70;;;;;;5080224;27;38178;-60
2022/01/11 07:44:07;;;;;;;31.13;16.17;;;2.00;95.90;;;;;;5078317;27;37439;-60
2022/01/11 07:46:39;;;;;;;28.63;15.93;;;2.10;95.60;;;;;;5076558;27;37732;-61
2022/01/11 07:49:06;;;;;;;29.08;15.43;;;2.20;95.50;;;;;;5075265;27;38270;-60
2022/01/11 07:51:34;;;;;;;28.27;16.10;;;2.10;95.40;;;;;;5080555;28;36681;-60
2022/01/11 07:54:01;;;;;;;29.30;16.60;;;2.00;95.30;;;;;;5079398;28;38968;-60
2022/01/11 07:56:28;;;;;;;25.63;14.85;;;2.00;95.50;;;;;;5080758;27;37843;-60
2022/01/11 07:58:56;;;;;;;26.20;13.85;;;2.00;95.60;;;;;;5080609;27;37907;-60
2022/01/11 08:01:25;;;;;;;29.85;15.50;;;2.10;95.60;;;;;;5078676;28;37030;-60
2022/01/11 08:03:53;;;;;;;26.65;14.30;;;2.10;95.50;;;;;;5080377;28;40415;-60
2022/01/11 08:06:21;;;;;;;29.30;16.73;;;2.20;95.40;;;;;;5080016;27;37910;-60
2022/01/11 08:08:48;;;;;;;28.75;16.08;;;2.20;95.20;;;;;;5079320;27;37761;-60
2022/01/11 08:11:16;;;;;;;30.02;16.23;;;2.20;95.30;;;;;;5082509;28;36706;-60
2022/01/11 08:13:43;;;;;;;30.23;14.75;;;2.20;95.30;;;;;;5082421;27;38881;-60
2022/01/11 08:16:10;;;;;;;29.77;16.45;;;2.20;95.30;;;;;;5084619;27;37595;-60
2022/01/11 08:18:38;;;;;;;27.13;14.73;;;2.20;95.40;;;;;;5083577;27;38127;-60
2022/01/11 08:21:07;;;;;;;29.98;14.50;;;2.20;95.50;;;;;;5085004;28;36969;-61
2022/01/11 08:23:35;;;;;;;28.17;14.40;;;2.30;95.50;;;;;;5083602;27;36219;-61
2022/01/11 08:26:03;;;;;;;24.90;14.10;;;2.40;95.40;;;;;;5083771;28;38022;-61
2022/01/11 08:28:30;;;;;;;23.58;13.40;;;2.50;95.30;;;;;;5083206;27;37328;-61
2022/01/11 08:30:57;;;;;;;25.38;14.98;;;2.70;95.10;;;;;;5085744;27;36797;-61
2022/01/11 08:33:25;;;;;;;25.52;14.27;;;2.80;94.90;;;;;;5084783;27;38135;-61
2022/01/11 08:35:53;;;;;;;26.20;13.70;;;3.00;94.70;;;;;;5084606;28;37766;-61
2022/01/11 08:38:22;;;;;;;26.50;13.50;;;2.90;94.20;;;;;;5083389;28;38629;-61
2022/01/11 08:40:49;;;;;;;26.95;13.52;;;2.70;93.90;;;;;;5083818;27;37267;-61
2022/01/11 08:43:16;;;;;;;29.27;14.15;;;2.60;94.10;;;;;;5084581;27;36431;-61
2022/01/11 08:45:43;;;;;;;27.20;14.35;;;2.50;94.40;;;;;;5085151;27;38333;-61
2022/01/11 08:48:11;;;;;;;22.13;12.30;;;2.40;94.50;;;;;;5083819;28;35721;-61
2022/01/11 08:50:38;;;;;;;24.25;13.93;;;2.40;95.00;;;;;;5083680;28;37646;-60
2022/01/11 08:53:06;;;;;;;25.63;14.90;;;2.40;94.80;;;;;;5083804;27;37600;-60
2022/01/11 08:55:35;;;;;;;25.08;13.70;;;2.30;94.80;;;;;;5084210;28;37832;-60
2022/01/11 08:58:03;;;;;;;25.48;12.95;;;2.20;94.90;;;;;;5081566;27;37475;-61
2022/01/11 09:00:31;;;;;;;24.75;12.98;;;2.20;95.00;;;;;;5083529;27;36814;-61
2022/01/11 09:02:58;;;;;;;23.58;12.60;;;2.20;95.00;;;;;;5084102;27;40257;-60
2022/01/11 09:05:25;;;;;;;26.42;13.75;;;2.20;95.20;;;;;;5082674;27;37568;-60
2022/01/11 09:07:53;;;;;;;23.70;13.57;;;2.10;95.10;;;;;;5083343;28;37168;-61
2022/01/11 09:10:21;;;;;;;26.23;13.38;;;2.10;95.10;;;;;;5072927;28;36528;-60
2022/01/11 09:12:50;;;;;;;24.33;13.35;;;2.00;95.30;;;;;;5074347;27;37615;-60
2022/01/11 09:15:17;;;;;;;23.38;13.43;;;1.90;95.50;;;;;;5078188;27;37569;-61
2022/01/11 09:17:45;;;;;;;23.77;12.82;;;2.00;95.60;;;;;;5077594;27;38392;-61
2022/01/11 09:20:14;;;;;;;23.80;12.02;;;2.00;95.60;;;;;;5077538;27;36107;-60
2022/01/11 09:22:42;;;;;;;21.35;11.82;;;2.00;95.40;;;;;;5077781;27;37803;-61
2022/01/11 09:25:11;;;;;;;19.55;11.82;;;2.10;95.40;;;;;;5078268;28;37748;-61
2022/01/11 09:27:39;;;;;;;21.20;12.32;;;2.10;95.40;;;;;;5076225;28;38380;-61
2022/01/11 09:30:11;;;;;;;25.33;12.18;;;2.10;95.30;;;;;;5076579;28;35329;-61
2022/01/11 09:32:40;;;;;;;24.77;13.48;;;2.00;95.30;;;;;;5075622;27;37585;-60
2022/01/11 09:35:11;;;;;;;28.88;15.13;;;2.00;95.30;;;;;;5076688;28;37877;-60
2022/01/11 09:37:39;;;;;;;20.05;12.35;;;1.90;95.40;;;;;;5075808;27;37613;-60
2022/01/11 09:40:09;;;;;;;25.40;13.43;;;1.80;95.50;;;;;;5075430;28;37498;-60
2022/01/11 09:42:37;;;;;;;21.65;13.30;;;1.80;95.50;;;;;;5076499;28;37254;-60
2022/01/11 09:45:07;;;;;;;22.30;12.50;;;1.90;95.70;;;;;;5077078;27;38796;-61
2022/01/11 09:47:35;;;;;;;19.77;12.05;;;2.00;95.60;;;;;;5076855;28;36571;-61
2022/01/11 09:50:03;;;;;;;22.55;12.38;;;2.10;95.60;;;;;;5075966;27;36366;-60
2022/01/11 09:52:30;;;;;;;22.85;12.93;;;2.20;95.40;;;;;;5076922;28;37632;-60
2022/01/11 09:54:58;;;;;;;20.63;10.98;;;2.20;95.30;;;;;;5075683;27;38941;-60
2022/01/11 09:57:25;;;;;;;20.88;11.70;;;2.30;95.10;;;;;;5075458;28;38039;-63
2022/01/11 09:59:53;;;;;;;18.60;11.55;;;2.20;95.20;;;;;;5077153;28;36937;-60
2022/01/11 10:02:22;;;;;;;20.48;11.52;;;2.40;95.40;;;;;;5075807;28;39949;-60
2022/01/11 10:04:58;;;;;;;22.08;12.63;;;2.60;95.00;;;;;;5073222;28;39110;-60
2022/01/11 10:07:30;;;;;;;19.25;11.50;;;2.80;94.80;;;;;;5075161;27;38302;-60
2022/01/11 10:09:57;;;;;;;24.45;12.70;;;3.10;94.40;;;;;;5071645;28;36737;-60
2022/01/11 10:12:26;;;;;;;19.08;11.27;;;3.10;93.70;;;;;;5073022;28;36295;-61
2022/01/11 10:14:56;;;;;;;20.85;11.35;;;3.40;94.00;;;;;;5074289;27;36608;-61
2022/01/11 10:17:27;;;;;;;22.88;13.05;;;3.10;93.90;;;;;;5071178;27;37170;-61
2022/01/11 10:20:02;;;;;;;19.35;11.60;;;3.00;93.70;;;;;;5072794;28;37631;-61
2022/01/11 10:22:30;;;;;;;21.75;12.15;;;2.90;93.80;;;;;;5073787;27;37689;-60
2022/01/11 10:24:59;;;;;;;23.40;13.48;;;2.80;94.00;;;;;;5074637;27;37900;-60
2022/01/11 10:27:29;;;;;;;24.58;12.80;;;2.80;94.20;;;;;;5073809;27;37527;-60
2022/01/11 10:29:58;;;;;;;23.80;13.23;;;2.70;94.30;;;;;;5074126;27;37334;-60
2022/01/11 10:32:31;;;;;;;21.95;13.32;;;2.60;94.30;;;;;;5073160;28;38633;-60
2022/01/11 10:35:01;;;;;;;21.50;12.80;;;2.60;94.40;;;;;;5074235;27;39362;-61
2022/01/11 10:37:31;;;;;;;21.48;12.60;;;2.60;94.50;;;;;;5075384;27;36493;-61
2022/01/11 10:40:08;;;;;;;22.83;12.82;;;2.70;94.80;;;;;;5076517;28;36820;-60
2022/01/11 10:42:38;;;;;;;24.25;14.50;;;2.70;94.40;;;;;;5075295;27;37588;-60
2022/01/11 10:45:07;;;;;;;26.30;13.27;;;2.70;94.40;;;;;;5076126;27;36391;-60
2022/01/11 10:47:37;;;;;;;23.55;13.27;;;2.70;94.40;;;;;;5075781;28;36238;-60
2022/01/11 10:50:08;;;;;;;25.33;14.98;;;2.70;94.50;;;;;;5075035;28;37443;-60
2022/01/11 10:52:36;;;;;;;22.15;13.40;;;2.70;94.60;;;;;;5076032;27;37558;-60
2022/01/11 10:55:05;;;;;;;23.67;14.18;;;2.70;94.70;;;;;;5076086;27;37970;-60
2022/01/11 10:57:36;;;;;;;23.98;14.48;;;2.80;94.80;;;;;;5072973;27;38760;-60
2022/01/11 11:00:29;;;;;;;22.98;12.75;;;2.80;94.70;;;;;;5075237;28;36628;-61
2022/01/11 11:03:07;;;;;;;29.45;15.35;;;2.80;94.90;;;;;;5076275;28;39576;-60
2022/01/11 11:05:37;;;;;;;27.20;14.18;;;3.10;94.90;;;;;;5074473;27;36533;-60
2022/01/11 11:08:11;;;;;;;24.95;14.38;;;3.20;94.90;;;;;;5076030;27;39555;-60
2022/01/11 11:10:49;;;;;;;26.15;14.40;;;3.30;94.50;;;;;;5074340;27;38577;-60
2022/01/11 11:13:23;;;;;;;27.15;14.05;;;3.40;94.50;;;;;;5075479;28;37924;-60
2022/01/11 11:15:51;;;;;;;25.80;13.95;;;3.40;94.30;;;;;;5070495;28;37575;-61
2022/01/11 11:18:26;;;;;;;26.52;14.77;;;3.50;94.40;;;;;;5070896;27;39224;-60
2022/01/11 11:20:54;;;;;;;27.40;14.15;;;3.50;94.50;;;;;;5074359;27;36744;-60
2022/01/11 11:23:21;;;;;;;24.52;13.98;;;3.50;94.50;;;;;;5070996;27;36615;-60
2022/01/11 11:25:49;;;;;;;27.13;14.45;;;3.60;94.60;;;;;;5073183;28;37723;-60
2022/01/11 11:28:16;;;;;;;25.58;14.18;;;3.60;94.40;;;;;;5073230;27;38915;-60
2022/01/11 11:30:50;;;;;;;24.08;12.63;;;3.60;94.60;;;;;;5073578;28;36714;-60
2022/01/11 11:33:21;;;;;;;25.23;14.95;;;4.10;94.70;;;;;;5074026;28;37810;-60
2022/01/11 11:35:51;;;;;;;22.73;14.35;;;3.80;94.50;;;;;;5074086;27;37787;-60
2022/01/11 11:38:20;;;;;;;23.50;13.40;;;3.80;94.60;;;;;;5073043;27;38619;-60
2022/01/11 11:40:52;;;;;;;29.85;15.30;;;3.90;94.40;;;;;;5073574;27;36154;-60
2022/01/11 11:43:22;;;;;;;21.85;13.73;;;4.00;94.40;;;;;;5074353;28;38096;-60
2022/01/11 11:45:49;;;;;;;25.65;14.50;;;4.00;94.40;;;;;;5078692;27;38207;-60
2022/01/11 11:48:19;;;;;;;24.05;14.20;;;4.00;94.20;;;;;;5078437;27;38337;-60
2022/01/11 11:50:51;;;;;;;25.65;14.00;;;4.00;94.00;;;;;;5078197;28;36693;-60
2022/01/11 11:53:24;;;;;;;23.75;14.35;;;4.00;93.90;;;;;;5075823;27;37551;-60
2022/01/11 11:55:52;;;;;;;24.80;13.40;;;4.00;93.80;;;;;;5076829;28;39302;-60
2022/01/11 11:58:22;;;;;;;27.20;14.05;;;4.10;94.00;;;;;;5072649;27;37485;-61
2022/01/11 12:00:51;;;;;;;26.05;13.65;;;4.00;93.90;;;;;;5072343;27;36577;-60
2022/01/11 12:03:22;;;;;;;27.02;15.57;;;4.00;93.90;;;;;;5072197;28;37421;-60
2022/01/11 12:05:52;;;;;;;23.10;14.48;;;4.00;93.80;;;;;;5072842;27;37545;-60
2022/01/11 12:08:31;;;;;;;30.45;14.70;;;3.90;93.80;;;;;;5070828;28;37768;-60
2022/01/11 12:11:02;;;;;;;27.40;14.95;;;3.80;93.90;;;;;;5068898;27;36539;-60
2022/01/11 12:13:51;;;;;;;23.25;13.68;;;3.80;94.10;;;;;;5070261;28;37791;-61
2022/01/11 12:16:42;;;;;;;26.45;15.05;;;3.80;94.20;;;;;;5072896;27;38666;-60
2022/01/11 12:19:29;;;;;;;25.63;14.63;;;3.80;94.40;;;;;;5056914;27;38745;-61
2022/01/11 12:22:18;;;;;;;25.20;13.98;;;3.80;94.50;;;;;;5072332;28;36676;-60
2022/01/11 12:24:48;;;;;;;27.65;14.68;;;3.70;94.50;;;;;;5072835;27;38037;-60
2022/01/11 12:27:18;;;;;;;24.02;13.85;;;3.70;94.40;;;;;;5070440;28;38227;-60
2022/01/11 12:29:54;;;;;;;22.27;13.60;;;3.70;94.40;;;;;;5073853;27;36283;-60
2022/01/11 12:32:23;;;;;;;26.33;13.13;;;3.80;94.30;;;;;;5075109;27;36562;-60
2022/01/11 12:34:58;;;;;;;26.30;14.18;;;3.70;94.30;;;;;;5074893;27;38424;-60
2022/01/11 12:37:30;;;;;;;24.75;13.27;;;3.70;94.40;;;;;;5073228;28;36529;-60
2022/01/11 12:40:25;;;;;;;24.52;14.13;;;3.70;94.40;;;;;;5074418;27;36226;-60
2022/01/11 12:43:04;;;;;;;22.65;13.07;;;3.80;94.40;;;;;;5074629;27;38034;-61
2022/01/11 12:46:06;;;;;;;22.33;13.32;;;3.80;94.40;;;;;;5075375;27;38032;-61
2022/01/11 12:49:02;;;;;;;23.35;12.73;;;3.80;94.30;;;;;;5009612;28;36569;-60